createdAt,value
2018-01-24T00:00:27.088Z,1015.25
2018-01-24T00:01:27.079Z,1015.22
2018-01-24T00:02:27.076Z,1015.26
2018-01-24T00:03:27.069Z,1015.26
2018-01-24T00:04:27.062Z,1015.28
2018-01-24T00:05:27.053Z,1015.11
2018-01-24T00:06:27.048Z,1015.16
2018-01-24T00:07:27.042Z,1015.17
2018-01-24T00:08:27.036Z,1015.10
2018-01-24T00:09:27.032Z,1015.16
2018-01-24T00:10:27.027Z,1015.18
2018-01-24T00:11:27.021Z,1015.16
2018-01-24T00:12:27.017Z,1015.13
2018-01-24T00:13:27.015Z,1015.06
2018-01-24T00:14:27.009Z,1015.04
2018-01-24T00:15:27.004Z,1015.15
2018-01-24T00:16:26.999Z,1015.14
2018-01-24T00:17:26.993Z,1015.06
2018-01-24T00:18:26.989Z,1015.00
2018-01-24T00:19:26.982Z,1015.00
2018-01-24T00:20:26.977Z,1014.99
2018-01-24T00:21:26.969Z,1014.95
2018-01-24T00:22:26.962Z,1014.99
2018-01-24T00:23:26.957Z,1014.93
2018-01-24T00:24:26.952Z,1014.92
2018-01-24T00:25:26.947Z,1014.92
2018-01-24T00:26:26.941Z,1014.86
2018-01-24T00:27:26.938Z,1014.85
2018-01-24T00:28:26.933Z,1014.84
2018-01-24T00:29:26.931Z,1014.86
2018-01-24T00:30:26.925Z,1014.78
2018-01-24T00:31:26.920Z,1014.79
2018-01-24T00:32:26.915Z,1014.85
2018-01-24T00:33:26.910Z,1014.79
2018-01-24T00:34:26.904Z,1014.75
2018-01-24T00:35:26.899Z,1014.71
2018-01-24T00:36:26.894Z,1014.76
2018-01-24T00:37:26.885Z,1014.77
2018-01-24T00:38:26.879Z,1014.75
2018-01-24T00:39:26.874Z,1014.76
2018-01-24T00:40:26.869Z,1014.71
2018-01-24T00:41:26.864Z,1014.77
2018-01-24T00:42:26.860Z,1014.71
2018-01-24T00:43:26.853Z,1014.76
2018-01-24T00:44:26.848Z,1014.78
2018-01-24T00:45:26.847Z,1014.80
2018-01-24T00:46:26.843Z,1014.75
2018-01-24T00:47:26.840Z,1014.73
2018-01-24T00:48:26.833Z,1014.66
2018-01-24T00:49:26.830Z,1014.68
2018-01-24T00:50:26.821Z,1014.71
2018-01-24T00:51:26.817Z,1014.70
2018-01-24T00:52:26.812Z,1014.74
2018-01-24T00:53:26.802Z,1014.72
2018-01-24T00:54:26.796Z,1014.76
2018-01-24T00:55:26.792Z,1014.80
2018-01-24T00:56:26.788Z,1014.73
2018-01-24T00:57:26.783Z,1014.78
2018-01-24T00:58:26.776Z,1014.75
2018-01-24T00:59:26.771Z,1014.75
2018-01-24T01:00:26.766Z,1014.75
2018-01-24T01:01:26.768Z,1014.74
2018-01-24T01:02:26.760Z,1014.74
2018-01-24T01:03:26.755Z,1014.69
2018-01-24T01:04:26.750Z,1014.70
2018-01-24T01:05:26.746Z,1014.69
2018-01-24T01:06:26.740Z,1014.66
2018-01-24T01:07:26.734Z,1014.69
2018-01-24T01:08:26.730Z,1014.70
2018-01-24T01:09:26.771Z,1014.66
2018-01-24T01:10:26.715Z,1014.64
2018-01-24T01:11:26.713Z,1014.59
2018-01-24T01:12:26.705Z,1014.62
2018-01-24T01:13:26.701Z,1014.66
2018-01-24T01:14:26.694Z,1014.64
2018-01-24T01:15:26.689Z,1014.62
2018-01-24T01:16:26.684Z,1014.60
2018-01-24T01:17:26.686Z,1014.60
2018-01-24T01:18:26.679Z,1014.63
2018-01-24T01:19:26.673Z,1014.60
2018-01-24T01:20:26.673Z,1014.64
2018-01-24T01:21:26.663Z,1014.65
2018-01-24T01:22:26.657Z,1014.67
2018-01-24T01:23:26.653Z,1014.61
2018-01-24T01:24:26.649Z,1014.69
2018-01-24T01:25:26.660Z,1014.64
2018-01-24T01:26:26.633Z,1014.65
2018-01-24T01:27:26.629Z,1014.63
2018-01-24T01:28:26.624Z,1014.62
2018-01-24T01:29:26.619Z,1014.61
2018-01-24T01:30:26.613Z,1014.56
2018-01-24T01:31:26.610Z,1014.57
2018-01-24T01:32:26.605Z,1014.62
2018-01-24T01:33:26.605Z,1014.58
2018-01-24T01:34:26.599Z,1014.65
2018-01-24T01:35:26.594Z,1014.56
2018-01-24T01:36:26.588Z,1014.54
2018-01-24T01:37:26.586Z,1014.56
2018-01-24T01:38:26.579Z,1014.58
2018-01-24T01:39:26.574Z,1014.55
2018-01-24T01:40:26.568Z,1014.52
2018-01-24T01:41:26.560Z,1014.62
2018-01-24T01:42:26.554Z,1014.55
2018-01-24T01:43:26.558Z,1014.55
2018-01-24T01:44:26.555Z,1014.56
2018-01-24T01:45:26.545Z,1014.58
2018-01-24T01:46:26.538Z,1014.60
2018-01-24T01:47:26.533Z,1014.58
2018-01-24T01:48:26.528Z,1014.58
2018-01-24T01:49:26.519Z,1014.55
2018-01-24T01:50:26.514Z,1014.62
2018-01-24T01:51:26.508Z,1014.61
2018-01-24T01:52:26.503Z,1014.58
2018-01-24T01:53:26.498Z,1014.68
2018-01-24T01:54:26.492Z,1014.69
2018-01-24T01:55:26.488Z,1014.70
2018-01-24T01:56:26.483Z,1014.70
2018-01-24T01:57:26.483Z,1014.63
2018-01-24T01:58:26.478Z,1014.64
2018-01-24T01:59:26.473Z,1014.69
2018-01-24T02:00:26.514Z,1014.70
2018-01-24T02:01:26.462Z,1014.62
2018-01-24T02:02:26.457Z,1014.58
2018-01-24T02:03:26.453Z,1014.65
2018-01-24T02:04:26.447Z,1014.56
2018-01-24T02:05:26.438Z,1014.55
2018-01-24T02:06:26.433Z,1014.55
2018-01-24T02:07:26.428Z,1014.52
2018-01-24T02:08:26.424Z,1014.51
2018-01-24T02:09:26.419Z,1014.56
2018-01-24T02:10:26.412Z,1014.56
2018-01-24T02:11:26.408Z,1014.46
2018-01-24T02:12:26.404Z,1014.55
2018-01-24T02:13:26.402Z,1014.56
2018-01-24T02:14:26.398Z,1014.54
2018-01-24T02:15:26.393Z,1014.45
2018-01-24T02:16:26.388Z,1014.52
2018-01-24T02:17:26.383Z,1014.43
2018-01-24T02:18:26.379Z,1014.49
2018-01-24T02:19:26.374Z,1014.40
2018-01-24T02:20:26.370Z,1014.44
2018-01-24T02:21:26.359Z,1014.47
2018-01-24T02:22:26.355Z,1014.41
2018-01-24T02:23:26.350Z,1014.44
2018-01-24T02:24:26.346Z,1014.39
2018-01-24T02:25:26.340Z,1014.38
2018-01-24T02:26:26.335Z,1014.38
2018-01-24T02:27:26.330Z,1014.38
2018-01-24T02:28:26.325Z,1014.40
2018-01-24T02:29:26.326Z,1014.41
2018-01-24T02:30:26.321Z,1014.40
2018-01-24T02:31:26.316Z,1014.39
2018-01-24T02:32:26.310Z,1014.43
2018-01-24T02:33:26.308Z,1014.38
2018-01-24T02:34:26.305Z,1014.40
2018-01-24T02:35:26.297Z,1014.37
2018-01-24T02:36:26.292Z,1014.43
2018-01-24T02:37:26.284Z,1014.46
2018-01-24T02:38:26.278Z,1014.43
2018-01-24T02:39:26.272Z,1014.41
2018-01-24T02:40:26.268Z,1014.38
2018-01-24T02:41:26.264Z,1014.39
2018-01-24T02:42:26.259Z,1014.33
2018-01-24T02:43:26.253Z,1014.40
2018-01-24T02:44:26.250Z,1014.36
2018-01-24T02:45:26.250Z,1014.40
2018-01-24T02:46:26.244Z,1014.34
2018-01-24T02:47:26.239Z,1014.34
2018-01-24T02:48:26.235Z,1014.36
2018-01-24T02:49:26.226Z,1014.30
2018-01-24T02:50:26.220Z,1014.31
2018-01-24T02:51:26.215Z,1014.32
2018-01-24T02:52:26.211Z,1014.35
2018-01-24T02:53:26.210Z,1014.27
2018-01-24T02:54:26.205Z,1014.31
2018-01-24T02:55:26.201Z,1014.30
2018-01-24T02:56:26.197Z,1014.28
2018-01-24T02:57:26.192Z,1014.31
2018-01-24T02:58:26.186Z,1014.27
2018-01-24T02:59:26.181Z,1014.25
2018-01-24T03:00:26.178Z,1014.22
2018-01-24T03:01:26.169Z,1014.30
2018-01-24T03:02:26.163Z,1014.31
2018-01-24T03:03:26.158Z,1014.31
2018-01-24T03:04:26.154Z,1014.19
2018-01-24T03:05:26.149Z,1014.26
2018-01-24T03:06:26.144Z,1014.21
2018-01-24T03:07:26.140Z,1014.23
2018-01-24T03:08:26.136Z,1014.20
2018-01-24T03:09:26.136Z,1014.23
2018-01-24T03:10:26.129Z,1014.15
2018-01-24T03:11:26.128Z,1014.14
2018-01-24T03:12:26.121Z,1014.16
2018-01-24T03:13:26.116Z,1014.14
2018-01-24T03:14:26.111Z,1014.13
2018-01-24T03:15:26.107Z,1014.18
2018-01-24T03:16:26.102Z,1014.19
2018-01-24T03:17:26.095Z,1014.15
2018-01-24T03:18:26.090Z,1014.11
2018-01-24T03:19:26.084Z,1014.13
2018-01-24T03:20:26.081Z,1014.20
2018-01-24T03:21:26.076Z,1014.19
2018-01-24T03:22:26.070Z,1014.18
2018-01-24T03:23:26.066Z,1014.19
2018-01-24T03:24:26.062Z,1014.20
2018-01-24T03:25:26.061Z,1014.22
2018-01-24T03:26:26.055Z,1014.18
2018-01-24T03:27:26.052Z,1014.20
2018-01-24T03:28:26.047Z,1014.15
2018-01-24T03:29:26.043Z,1014.23
2018-01-24T03:30:26.038Z,1014.25
2018-01-24T03:31:26.034Z,1014.17
2018-01-24T03:32:26.030Z,1014.22
2018-01-24T03:33:26.021Z,1014.15
2018-01-24T03:34:26.015Z,1014.17
2018-01-24T03:35:26.011Z,1014.15
2018-01-24T03:36:26.006Z,1014.12
2018-01-24T03:37:26.001Z,1014.12
2018-01-24T03:38:25.996Z,1014.16
2018-01-24T03:39:25.992Z,1014.19
2018-01-24T03:40:25.987Z,1014.14
2018-01-24T03:41:25.987Z,1014.14
2018-01-24T03:42:25.982Z,1014.08
2018-01-24T03:43:25.978Z,1014.08
2018-01-24T03:44:25.973Z,1014.03
2018-01-24T03:45:25.969Z,1014.09
2018-01-24T03:46:25.964Z,1014.03
2018-01-24T03:47:25.959Z,1014.04
2018-01-24T03:48:25.955Z,1014.14
2018-01-24T03:49:25.947Z,1014.11
2018-01-24T03:50:25.940Z,1014.08
2018-01-24T03:51:25.937Z,1014.06
2018-01-24T03:52:25.932Z,1014.13
2018-01-24T03:53:25.932Z,1014.08
2018-01-24T03:54:25.926Z,1014.15
2018-01-24T03:55:25.921Z,1014.12
2018-01-24T03:56:25.918Z,1014.12
2018-01-24T03:57:25.910Z,1014.14
2018-01-24T03:58:25.904Z,1014.14
2018-01-24T03:59:25.900Z,1014.06
2018-01-24T04:00:25.894Z,1014.10
2018-01-24T04:01:25.890Z,1014.11
2018-01-24T04:02:25.885Z,1014.09
2018-01-24T04:03:25.880Z,1013.96
2018-01-24T04:04:25.880Z,1014.11
2018-01-24T04:05:25.877Z,1014.13
2018-01-24T04:06:25.870Z,1014.02
2018-01-24T04:07:25.866Z,1013.99
2018-01-24T04:08:25.861Z,1013.98
2018-01-24T04:09:25.858Z,1013.99
2018-01-24T04:10:25.853Z,1014.03
2018-01-24T04:11:25.847Z,1014.07
2018-01-24T04:12:25.843Z,1014.06
2018-01-24T04:13:25.834Z,1014.08
2018-01-24T04:14:25.830Z,1014.05
2018-01-24T04:15:25.825Z,1014.04
2018-01-24T04:16:25.819Z,1014.02
2018-01-24T04:17:25.815Z,1014.04
2018-01-24T04:18:25.810Z,1014.10
2018-01-24T04:19:25.805Z,1014.02
2018-01-24T04:20:25.801Z,1014.07
2018-01-24T04:21:25.802Z,1014.05
2018-01-24T04:22:25.794Z,1014.04
2018-01-24T04:23:25.791Z,1014.06
2018-01-24T04:24:25.785Z,1014.03
2018-01-24T04:25:25.782Z,1014.00
2018-01-24T04:26:25.776Z,1014.05
2018-01-24T04:27:25.771Z,1014.03
2018-01-24T04:28:25.767Z,1014.03
2018-01-24T04:29:25.757Z,1014.01
2018-01-24T04:30:25.753Z,1013.98
2018-01-24T04:31:25.748Z,1014.01
2018-01-24T04:32:25.744Z,1013.96
2018-01-24T04:33:25.739Z,1013.97
2018-01-24T04:34:25.732Z,1013.96
2018-01-24T04:35:25.728Z,1013.97
2018-01-24T04:36:25.724Z,1014.00
2018-01-24T04:37:25.722Z,1013.93
2018-01-24T04:38:25.718Z,1013.95
2018-01-24T04:39:25.713Z,1013.93
2018-01-24T04:40:25.708Z,1013.91
2018-01-24T04:41:25.703Z,1013.96
2018-01-24T04:42:25.698Z,1013.90
2018-01-24T04:43:25.693Z,1013.93
2018-01-24T04:44:25.689Z,1013.93
2018-01-24T04:45:25.680Z,1013.87
2018-01-24T04:46:25.675Z,1013.94
2018-01-24T04:47:25.669Z,1013.84
2018-01-24T04:48:25.664Z,1013.84
2018-01-24T04:49:25.661Z,1013.87
2018-01-24T04:50:25.655Z,1013.82
2018-01-24T04:51:25.650Z,1013.84
2018-01-24T04:52:25.645Z,1013.84
2018-01-24T04:53:25.644Z,1013.84
2018-01-24T04:54:25.638Z,1013.84
2018-01-24T04:55:25.635Z,1013.85
2018-01-24T04:56:25.628Z,1013.86
2018-01-24T04:57:25.626Z,1013.82
2018-01-24T04:58:25.619Z,1013.83
2018-01-24T04:59:25.618Z,1013.85
2018-01-24T05:00:25.611Z,1013.85
2018-01-24T05:01:25.601Z,1013.79
2018-01-24T05:02:25.595Z,1013.81
2018-01-24T05:03:25.590Z,1013.78
2018-01-24T05:04:25.587Z,1013.74
2018-01-24T05:05:25.582Z,1013.74
2018-01-24T05:06:25.576Z,1013.72
2018-01-24T05:07:25.571Z,1013.76
2018-01-24T05:08:25.567Z,1013.75
2018-01-24T05:09:25.564Z,1013.75
2018-01-24T05:10:25.560Z,1013.77
2018-01-24T05:11:25.556Z,1013.76
2018-01-24T05:12:25.550Z,1013.76
2018-01-24T05:13:25.546Z,1013.78
2018-01-24T05:14:25.540Z,1013.71
2018-01-24T05:15:25.536Z,1013.72
2018-01-24T05:16:25.531Z,1013.72
2018-01-24T05:17:25.522Z,1013.78
2018-01-24T05:18:25.516Z,1013.80
2018-01-24T05:19:25.511Z,1013.78
2018-01-24T05:20:25.507Z,1013.77
2018-01-24T05:21:25.502Z,1013.77
2018-01-24T05:22:25.497Z,1013.75
2018-01-24T05:23:25.493Z,1013.78
2018-01-24T05:24:25.488Z,1013.78
2018-01-24T05:25:25.488Z,1013.76
2018-01-24T05:26:25.481Z,1013.77
2018-01-24T05:27:25.476Z,1013.82
2018-01-24T05:28:25.472Z,1013.78
2018-01-24T05:29:25.466Z,1013.80
2018-01-24T05:30:25.461Z,1013.84
2018-01-24T05:31:25.456Z,1013.75
2018-01-24T05:32:25.452Z,1013.78
2018-01-24T05:33:25.444Z,1013.72
2018-01-24T05:34:25.438Z,1013.74
2018-01-24T05:35:25.433Z,1013.76
2018-01-24T05:36:25.427Z,1013.73
2018-01-24T05:37:25.423Z,1013.74
2018-01-24T05:38:25.417Z,1013.79
2018-01-24T05:39:25.413Z,1013.75
2018-01-24T05:40:25.408Z,1013.81
2018-01-24T05:41:25.408Z,1013.72
2018-01-24T05:42:25.403Z,1013.73
2018-01-24T05:43:25.400Z,1013.68
2018-01-24T05:44:25.394Z,1013.69
2018-01-24T05:45:25.390Z,1013.66
2018-01-24T05:46:25.387Z,1013.63
2018-01-24T05:47:25.382Z,1013.63
2018-01-24T05:48:25.375Z,1013.60
2018-01-24T05:49:25.365Z,1013.65
2018-01-24T05:50:25.360Z,1013.66
2018-01-24T05:51:25.355Z,1013.63
2018-01-24T05:52:25.350Z,1013.60
2018-01-24T05:53:25.347Z,1013.59
2018-01-24T05:54:25.341Z,1013.57
2018-01-24T05:55:25.337Z,1013.57
2018-01-24T05:56:25.331Z,1013.56
2018-01-24T05:57:25.332Z,1013.61
2018-01-24T05:58:25.325Z,1013.58
2018-01-24T05:59:25.324Z,1013.63
2018-01-24T06:00:25.318Z,1013.57
2018-01-24T06:01:25.312Z,1013.58
2018-01-24T06:02:25.302Z,1013.59
2018-01-24T06:03:25.297Z,1013.55
2018-01-24T06:04:25.294Z,1013.62
2018-01-24T06:05:25.293Z,1013.63
2018-01-24T06:06:25.287Z,1013.58
2018-01-24T06:07:25.282Z,1013.64
2018-01-24T06:08:25.279Z,1013.58
2018-01-24T06:09:25.275Z,1013.56
2018-01-24T06:10:25.268Z,1013.56
2018-01-24T06:11:25.264Z,1013.50
2018-01-24T06:12:25.259Z,1013.52
2018-01-24T06:13:25.253Z,1013.55
2018-01-24T06:14:25.245Z,1013.55
2018-01-24T06:15:25.240Z,1013.58
2018-01-24T06:16:25.237Z,1013.65
2018-01-24T06:17:25.232Z,1013.59
2018-01-24T06:18:25.229Z,1013.54
2018-01-24T06:19:25.222Z,1013.59
2018-01-24T06:20:25.217Z,1013.61
2018-01-24T06:21:25.220Z,1013.61
2018-01-24T06:22:25.212Z,1013.69
2018-01-24T06:23:25.210Z,1013.59
2018-01-24T06:24:25.203Z,1013.68
2018-01-24T06:25:25.202Z,1013.68
2018-01-24T06:26:25.194Z,1013.64
2018-01-24T06:27:25.189Z,1013.63
2018-01-24T06:28:25.184Z,1013.69
2018-01-24T06:29:25.176Z,1013.65
2018-01-24T06:30:25.172Z,1013.62
2018-01-24T06:31:25.165Z,1013.59
2018-01-24T06:32:25.162Z,1013.63
2018-01-24T06:33:25.158Z,1013.62
2018-01-24T06:34:25.155Z,1013.59
2018-01-24T06:35:25.147Z,1013.64
2018-01-24T06:36:25.142Z,1013.60
2018-01-24T06:37:25.142Z,1013.53
2018-01-24T06:38:25.138Z,1013.55
2018-01-24T06:39:25.181Z,1013.55
2018-01-24T06:40:25.129Z,1013.52
2018-01-24T06:41:25.123Z,1013.56
2018-01-24T06:42:25.119Z,1013.51
2018-01-24T06:43:25.115Z,1013.52
2018-01-24T06:44:25.111Z,1013.59
2018-01-24T06:45:25.102Z,1013.61
2018-01-24T06:46:25.096Z,1013.63
2018-01-24T06:47:25.091Z,1013.60
2018-01-24T06:48:25.087Z,1013.67
2018-01-24T06:49:25.082Z,1013.65
2018-01-24T06:50:25.078Z,1013.61
2018-01-24T06:51:25.072Z,1013.54
2018-01-24T06:52:25.069Z,1013.56
2018-01-24T06:53:25.069Z,1013.62
2018-01-24T06:54:25.064Z,1013.61
2018-01-24T06:55:25.060Z,1013.55
2018-01-24T06:56:25.055Z,1013.58
2018-01-24T06:57:25.050Z,1013.57
2018-01-24T06:58:25.045Z,1013.59
2018-01-24T06:59:25.046Z,1013.52
2018-01-24T07:00:25.035Z,1013.54
2018-01-24T07:01:25.027Z,1013.59
2018-01-24T07:02:25.023Z,1013.58
2018-01-24T07:03:25.017Z,1013.58
2018-01-24T07:04:25.012Z,1013.55
2018-01-24T07:05:25.012Z,1013.57
2018-01-24T07:06:25.011Z,1013.56
2018-01-24T07:07:25.003Z,1013.57
2018-01-24T07:08:24.997Z,1013.60
2018-01-24T07:09:24.988Z,1013.58
2018-01-24T07:10:24.983Z,1013.63
2018-01-24T07:11:24.979Z,1013.60
2018-01-24T07:12:24.974Z,1013.58
2018-01-24T07:13:24.970Z,1013.60
2018-01-24T07:14:24.963Z,1013.60
2018-01-24T07:15:24.964Z,1013.57
2018-01-24T07:16:24.957Z,1013.58
2018-01-24T07:17:24.955Z,1013.54
2018-01-24T07:18:24.949Z,1013.54
2018-01-24T07:19:24.944Z,1013.56
2018-01-24T07:20:24.939Z,1013.63
2018-01-24T07:21:24.936Z,1013.56
2018-01-24T07:22:24.928Z,1013.59
2018-01-24T07:23:24.926Z,1013.60
2018-01-24T07:24:24.921Z,1013.55
2018-01-24T07:25:24.914Z,1013.55
2018-01-24T07:26:24.906Z,1013.57
2018-01-24T07:27:24.902Z,1013.56
2018-01-24T07:28:24.936Z,1013.64
2018-01-24T07:29:24.892Z,1013.58
2018-01-24T07:30:24.887Z,1013.55
2018-01-24T07:31:24.883Z,1013.58
2018-01-24T07:32:24.878Z,1013.58
2018-01-24T07:33:24.877Z,1013.67
2018-01-24T07:34:24.872Z,1013.64
2018-01-24T07:35:24.867Z,1013.61
2018-01-24T07:36:24.863Z,1013.56
2018-01-24T07:37:24.859Z,1013.59
2018-01-24T07:38:24.854Z,1013.59
2018-01-24T07:39:24.849Z,1013.58
2018-01-24T07:40:24.845Z,1013.63
2018-01-24T07:41:24.836Z,1013.53
2018-01-24T07:42:24.828Z,1013.52
2018-01-24T07:43:24.826Z,1013.53
2018-01-24T07:44:24.821Z,1013.51
2018-01-24T07:45:24.816Z,1013.50
2018-01-24T07:46:24.810Z,1013.50
2018-01-24T07:47:24.805Z,1013.47
2018-01-24T07:48:24.809Z,1013.53
2018-01-24T07:49:24.800Z,1013.46
2018-01-24T07:50:24.796Z,1013.41
2018-01-24T07:51:24.791Z,1013.48
2018-01-24T07:52:24.786Z,1013.41
2018-01-24T07:53:24.782Z,1013.45
2018-01-24T07:54:24.782Z,1013.40
2018-01-24T07:55:24.771Z,1013.34
2018-01-24T07:56:24.766Z,1013.36
2018-01-24T07:57:24.758Z,1013.37
2018-01-24T07:58:24.754Z,1013.41
2018-01-24T07:59:24.746Z,1013.38
2018-01-24T08:00:24.747Z,1013.32
2018-01-24T08:01:24.738Z,1013.43
2018-01-24T08:02:24.732Z,1013.36
2018-01-24T08:03:24.728Z,1013.45
2018-01-24T08:04:24.724Z,1013.44
2018-01-24T08:05:24.723Z,1013.32
2018-01-24T08:06:24.717Z,1013.34
2018-01-24T08:07:24.712Z,1013.35
2018-01-24T08:08:24.708Z,1013.36
2018-01-24T08:09:24.699Z,1013.32
2018-01-24T08:10:24.693Z,1013.34
2018-01-24T08:11:24.690Z,1013.33
2018-01-24T08:12:24.685Z,1013.28
2018-01-24T08:13:24.684Z,1013.30
2018-01-24T08:14:24.678Z,1013.40
2018-01-24T08:15:24.723Z,1013.38
2018-01-24T08:16:24.669Z,1013.27
2018-01-24T08:17:24.681Z,1013.34
2018-01-24T08:18:24.672Z,1013.30
2018-01-24T08:19:24.656Z,1013.26
2018-01-24T08:20:24.650Z,1013.28
2018-01-24T08:21:24.643Z,1013.15
2018-01-24T08:22:24.635Z,1013.20
2018-01-24T08:23:24.632Z,1013.14
2018-01-24T08:24:24.627Z,1013.25
2018-01-24T08:25:24.623Z,1013.09
2018-01-24T08:26:24.617Z,1013.18
2018-01-24T08:27:24.613Z,1013.09
2018-01-24T08:28:24.609Z,1013.10
2018-01-24T08:29:24.612Z,1013.07
2018-01-24T08:30:24.604Z,1013.14
2018-01-24T08:31:24.599Z,1013.13
2018-01-24T08:32:24.594Z,1013.13
2018-01-24T08:33:24.596Z,1013.13
2018-01-24T08:34:24.585Z,1013.14
2018-01-24T08:35:24.580Z,1013.07
2018-01-24T08:36:24.576Z,1013.05
2018-01-24T08:37:24.566Z,1013.10
2018-01-24T08:38:24.561Z,1013.08
2018-01-24T08:39:24.558Z,1013.08
2018-01-24T08:40:24.558Z,1013.13
2018-01-24T08:41:24.549Z,1013.14
2018-01-24T08:42:24.544Z,1013.09
2018-01-24T08:43:24.540Z,1013.14
2018-01-24T08:44:24.534Z,1013.14
2018-01-24T08:45:24.535Z,1013.06
2018-01-24T08:46:24.530Z,1013.07
2018-01-24T08:47:24.525Z,1013.05
2018-01-24T08:48:24.521Z,1013.09
2018-01-24T08:49:24.517Z,1013.01
2018-01-24T08:50:24.513Z,1013.00
2018-01-24T08:51:24.509Z,1013.06
2018-01-24T08:52:24.502Z,1013.16
2018-01-24T08:53:24.496Z,1012.99
2018-01-24T08:54:24.491Z,1013.01
2018-01-24T08:55:24.486Z,1013.03
2018-01-24T08:56:24.483Z,1012.99
2018-01-24T08:57:24.480Z,1013.02
2018-01-24T08:58:24.478Z,1013.01
2018-01-24T08:59:24.471Z,1013.03
2018-01-24T09:00:24.467Z,1013.00
2018-01-24T09:01:24.467Z,1013.01
2018-01-24T09:02:24.463Z,1013.05
2018-01-24T09:03:24.459Z,1013.01
2018-01-24T09:04:24.458Z,1012.94
2018-01-24T09:05:24.505Z,1012.97
2018-01-24T09:06:24.447Z,1012.95
2018-01-24T09:07:24.443Z,1012.96
2018-01-24T09:08:24.439Z,1012.95
2018-01-24T09:09:24.434Z,1013.03
2018-01-24T09:10:24.430Z,1013.04
2018-01-24T09:11:24.429Z,1012.94
2018-01-24T09:12:24.420Z,1012.91
2018-01-24T09:13:24.418Z,1012.90
2018-01-24T09:14:24.414Z,1012.92
2018-01-24T09:15:24.409Z,1012.94
2018-01-24T09:16:24.432Z,1012.89
2018-01-24T09:17:24.406Z,1012.94
2018-01-24T09:18:24.401Z,1012.88
2018-01-24T09:19:24.399Z,1012.87
2018-01-24T09:20:24.394Z,1012.93
2018-01-24T09:21:24.390Z,1012.89
2018-01-24T09:22:24.386Z,1012.88
2018-01-24T09:23:24.381Z,1012.86
2018-01-24T09:24:24.378Z,1012.87
2018-01-24T09:25:24.369Z,1012.85
2018-01-24T09:26:24.365Z,1012.76
2018-01-24T09:27:24.361Z,1012.72
2018-01-24T09:28:24.361Z,1012.79
2018-01-24T09:29:24.356Z,1012.72
2018-01-24T09:30:24.371Z,1012.67
2018-01-24T09:31:24.346Z,1012.63
2018-01-24T09:32:24.344Z,1012.65
2018-01-24T09:33:24.345Z,1012.65
2018-01-24T09:34:24.339Z,1012.59
2018-01-24T09:35:24.342Z,1012.62
2018-01-24T09:36:24.333Z,1012.59
2018-01-24T09:37:24.331Z,1012.64
2018-01-24T09:38:24.325Z,1012.61
2018-01-24T09:39:24.323Z,1012.58
2018-01-24T09:40:24.320Z,1012.62
2018-01-24T09:41:24.312Z,1012.65
2018-01-24T09:42:24.307Z,1012.63
2018-01-24T09:43:24.305Z,1012.59
2018-01-24T09:44:24.301Z,1012.59
2018-01-24T09:45:24.300Z,1012.65
2018-01-24T09:46:24.334Z,1012.63
2018-01-24T09:47:24.291Z,1012.63
2018-01-24T09:48:24.294Z,1012.64
2018-01-24T09:49:24.289Z,1012.51
2018-01-24T09:50:24.285Z,1012.56
2018-01-24T09:51:24.282Z,1012.60
2018-01-24T09:52:24.279Z,1012.52
2018-01-24T09:53:24.276Z,1012.54
2018-01-24T09:54:24.273Z,1012.56
2018-01-24T09:55:24.270Z,1012.58
2018-01-24T09:56:24.268Z,1012.55
2018-01-24T09:57:24.264Z,1012.53
2018-01-24T09:58:24.256Z,1012.51
2018-01-24T09:59:24.254Z,1012.53
2018-01-24T10:00:24.252Z,1012.56
2018-01-24T10:01:24.251Z,1012.57
2018-01-24T10:02:24.247Z,1012.54
2018-01-24T10:03:24.246Z,1012.60
2018-01-24T10:04:24.245Z,1012.44
2018-01-24T10:05:24.247Z,1012.42
2018-01-24T10:06:24.244Z,1012.42
2018-01-24T10:07:24.242Z,1012.43
2018-01-24T10:08:24.242Z,1012.35
2018-01-24T10:09:24.239Z,1012.45
2018-01-24T10:10:24.235Z,1012.45
2018-01-24T10:11:24.233Z,1012.37
2018-01-24T10:12:24.232Z,1012.31
2018-01-24T10:13:24.226Z,1012.47
2018-01-24T10:14:24.225Z,1012.41
2018-01-24T10:15:24.220Z,1012.37
2018-01-24T10:16:24.220Z,1012.35
2018-01-24T10:17:24.221Z,1012.29
2018-01-24T10:18:24.217Z,1012.27
2018-01-24T10:19:24.215Z,1012.32
2018-01-24T10:20:24.213Z,1012.32
2018-01-24T10:21:24.207Z,1012.29
2018-01-24T10:22:24.204Z,1012.34
2018-01-24T10:23:24.201Z,1012.27
2018-01-24T10:24:24.199Z,1012.33
2018-01-24T10:25:24.197Z,1012.25
2018-01-24T10:26:24.193Z,1012.20
2018-01-24T10:27:24.190Z,1012.27
2018-01-24T10:28:24.187Z,1012.29
2018-01-24T10:29:24.188Z,1012.20
2018-01-24T10:30:24.187Z,1012.24
2018-01-24T10:31:24.182Z,1012.20
2018-01-24T10:32:24.179Z,1012.18
2018-01-24T10:33:24.176Z,1012.23
2018-01-24T10:34:24.173Z,1012.15
2018-01-24T10:35:24.171Z,1012.19
2018-01-24T10:36:24.167Z,1012.16
2018-01-24T10:37:24.160Z,1012.12
2018-01-24T10:38:24.155Z,1012.07
2018-01-24T10:39:24.152Z,1012.19
2018-01-24T10:40:24.150Z,1012.09
2018-01-24T10:41:24.147Z,1012.11
2018-01-24T10:42:24.142Z,1011.99
2018-01-24T10:43:24.140Z,1011.99
2018-01-24T10:44:24.136Z,1011.92
2018-01-24T10:45:24.137Z,1011.97
2018-01-24T10:46:24.133Z,1011.90
2018-01-24T10:47:24.132Z,1011.82
2018-01-24T10:48:24.128Z,1011.82
2018-01-24T10:49:24.125Z,1011.87
2018-01-24T10:50:24.121Z,1011.83
2018-01-24T10:51:24.119Z,1011.88
2018-01-24T10:52:24.115Z,1011.81
2018-01-24T10:53:24.109Z,1011.88
2018-01-24T10:54:24.105Z,1011.87
2018-01-24T10:55:24.104Z,1011.82
2018-01-24T10:56:24.100Z,1011.81
2018-01-24T10:57:24.097Z,1011.78
2018-01-24T10:58:24.094Z,1011.73
2018-01-24T10:59:24.097Z,1011.76
2018-01-24T11:00:24.092Z,1011.65
2018-01-24T11:01:24.095Z,1011.66
2018-01-24T11:02:24.094Z,1011.66
2018-01-24T11:03:24.091Z,1011.70
2018-01-24T11:04:24.093Z,1011.66
2018-01-24T11:05:24.090Z,1011.67
2018-01-24T11:06:24.086Z,1011.67
2018-01-24T11:07:24.085Z,1011.70
2018-01-24T11:08:24.083Z,1011.53
2018-01-24T11:09:24.079Z,1011.59
2018-01-24T11:10:24.076Z,1011.51
2018-01-24T11:11:24.075Z,1011.54
2018-01-24T11:12:24.077Z,1011.52
2018-01-24T11:13:24.072Z,1011.51
2018-01-24T11:14:24.071Z,1011.49
2018-01-24T11:15:24.069Z,1011.49
2018-01-24T11:16:24.072Z,1011.51
2018-01-24T11:17:24.073Z,1011.48
2018-01-24T11:18:24.069Z,1011.39
2018-01-24T11:19:24.067Z,1011.41
2018-01-24T11:20:24.067Z,1011.45
2018-01-24T11:21:24.060Z,1011.42
2018-01-24T11:22:24.056Z,1011.37
2018-01-24T11:23:24.054Z,1011.37
2018-01-24T11:24:24.053Z,1011.28
2018-01-24T11:25:24.058Z,1011.31
2018-01-24T11:26:24.054Z,1011.27
2018-01-24T11:27:24.052Z,1011.28
2018-01-24T11:28:24.049Z,1011.33
2018-01-24T11:29:24.047Z,1011.30
2018-01-24T11:30:24.046Z,1011.29
2018-01-24T11:31:24.043Z,1011.28
2018-01-24T11:32:24.042Z,1011.16
2018-01-24T11:33:24.035Z,1011.22
2018-01-24T11:34:24.033Z,1011.19
2018-01-24T11:35:24.032Z,1011.16
2018-01-24T11:36:24.029Z,1011.11
2018-01-24T11:37:24.029Z,1011.15
2018-01-24T11:38:24.025Z,1011.04
2018-01-24T11:39:24.023Z,1011.08
2018-01-24T11:40:24.021Z,1011.10
2018-01-24T11:41:24.026Z,1011.03
2018-01-24T11:42:24.021Z,1011.06
2018-01-24T11:43:24.019Z,1010.98
2018-01-24T11:44:24.017Z,1011.02
2018-01-24T11:45:24.016Z,1010.89
2018-01-24T11:46:24.014Z,1010.92
2018-01-24T11:47:24.012Z,1010.93
2018-01-24T11:48:24.010Z,1010.93
2018-01-24T11:49:24.005Z,1010.90
2018-01-24T11:50:24.001Z,1010.85
2018-01-24T11:51:23.999Z,1010.88
2018-01-24T11:52:23.997Z,1010.86
2018-01-24T11:53:23.994Z,1010.86
2018-01-24T11:54:23.997Z,1010.84
2018-01-24T11:55:23.992Z,1010.79
2018-01-24T11:56:23.989Z,1010.80
2018-01-24T11:57:23.992Z,1010.76
2018-01-24T11:58:23.989Z,1010.75
2018-01-24T11:59:23.988Z,1010.78
2018-01-24T12:00:23.985Z,1010.75
2018-01-24T12:01:23.985Z,1010.70
2018-01-24T12:02:23.981Z,1010.74
2018-01-24T12:03:23.980Z,1010.71
2018-01-24T12:04:23.979Z,1010.72
2018-01-24T12:05:23.973Z,1010.71